Phoenix, Arizona
Traffic Map
Current Weather Conditions
Phoenix, Arizona
Few Clouds
Few Clouds
39°
Feels Like: 39°
Wind Chill: 39° Ceiling: Unl
Heat Index: 39° Visibility: 10mi
Dew Point: -2° Wind: 3mph
Humidity: 7% Direction: ° ()
Pressure: 29.69in Gusts: 0mph
Raw Report DataKPHX 241951Z VRB03KT 10SM FEW120 FEW250 39/M02 A2969 RMK AO2 SLP031 T03891022
Traffic Incident Summary
Active as of:
Severity:
Category:
InformationThere was an issue retrieving the traffic information for this location. Please try a different location or try again shortly.
Advertisements
Track Severe Weather on mobile